Time;durP1;ratioP1;P1;durP2;ratioP2;P2;SDS_P1;SDS_P2;PMS_P1;PMS_P2;Temp;Humidity;BMP_temperature;BMP_pressure;BME280_temperature;BME280_humidity;BME280_pressure;Samples;Min_cycle;Max_cycle;Signal;HPM_P1;HPM_P2
2023/08/18 00:00:40;;;;;;;37.85;24.27;;;17.50;99.90;;;;;;5039994;28;20417;-63
2023/08/18 00:03:07;;;;;;;40.38;25.10;;;17.40;99.90;;;;;;5038574;28;20410;-64
2023/08/18 00:05:33;;;;;;;38.17;24.48;;;17.50;99.90;;;;;;5040738;28;20415;-63
2023/08/18 00:08:01;;;;;;;39.77;24.90;;;17.30;99.90;;;;;;5039025;28;20415;-64
2023/08/18 00:10:28;;;;;;;40.33;25.25;;;17.40;99.90;;;;;;5040001;28;20917;-63
2023/08/18 00:12:54;;;;;;;42.50;25.92;;;17.40;99.90;;;;;;5040187;28;20415;-64
2023/08/18 00:15:21;;;;;;;39.30;25.52;;;17.60;99.90;;;;;;5038005;28;20473;-63
2023/08/18 00:17:48;;;;;;;41.50;26.67;;;17.40;99.90;;;;;;5033528;28;20822;-63
2023/08/18 00:20:15;;;;;;;44.17;25.55;;;17.50;99.90;;;;;;5036991;28;20411;-63
2023/08/18 00:22:41;;;;;;;41.20;25.63;;;17.30;99.90;;;;;;5041834;28;20440;-63
2023/08/18 00:25:10;;;;;;;45.53;27.50;;;16.90;99.90;;;;;;5037597;28;20796;-63
2023/08/18 00:27:37;;;;;;;44.25;28.10;;;17.20;99.90;;;;;;5037425;28;20834;-64
2023/08/18 00:30:05;;;;;;;41.17;27.07;;;17.00;99.90;;;;;;5038204;28;20433;-63
2023/08/18 00:32:32;;;;;;;47.67;27.33;;;17.20;99.90;;;;;;5038503;28;20419;-63
2023/08/18 00:34:58;;;;;;;45.25;28.27;;;17.10;99.90;;;;;;5044578;28;20409;-63
2023/08/18 00:37:25;;;;;;;45.15;27.70;;;17.30;99.90;;;;;;5037929;28;20423;-63
2023/08/18 00:39:52;;;;;;;47.25;28.10;;;17.10;99.90;;;;;;5034985;28;20869;-64
2023/08/18 00:42:19;;;;;;;46.47;28.05;;;16.90;99.90;;;;;;5037822;28;20913;-64
2023/08/18 00:44:46;;;;;;;49.50;29.30;;;16.90;99.90;;;;;;5037462;28;20466;-64
2023/08/18 00:47:14;;;;;;;50.85;29.02;;;17.00;99.90;;;;;;5037994;28;20422;-63
2023/08/18 00:49:41;;;;;;;57.50;30.55;;;17.00;99.90;;;;;;5039316;28;20429;-63
2023/08/18 00:52:07;;;;;;;53.88;29.90;;;16.90;99.90;;;;;;5044334;28;20409;-63
2023/08/18 00:54:34;;;;;;;54.92;30.42;;;17.00;99.90;;;;;;5040214;28;20487;-63
2023/08/18 00:57:01;;;;;;;54.72;29.00;;;17.20;99.90;;;;;;5037816;28;20413;-64
2023/08/18 00:59:29;;;;;;;52.90;29.60;;;16.90;99.90;;;;;;5039584;28;20864;-63
2023/08/18 01:02:02;;;;;;;55.65;30.35;;;16.80;99.90;;;;;;5038814;28;20420;-63
2023/08/18 01:04:29;;;;;;;58.15;30.20;;;17.10;99.90;;;;;;5039596;28;20773;-64
2023/08/18 01:06:56;;;;;;;56.80;29.77;;;17.00;99.90;;;;;;5038575;28;20427;-63
2023/08/18 01:09:23;;;;;;;56.55;29.30;;;17.10;99.90;;;;;;5041723;28;20434;-63
2023/08/18 01:11:58;;;;;;;55.75;29.05;;;17.10;99.90;;;;;;5043275;28;20766;-64
2023/08/18 01:14:34;;;;;;;59.47;30.02;;;16.80;99.90;;;;;;5043062;28;20804;-63
2023/08/18 01:17:07;;;;;;;58.92;29.73;;;17.20;99.90;;;;;;5041363;28;20431;-63
2023/08/18 01:19:35;;;;;;;59.83;30.30;;;17.10;99.90;;;;;;5042654;28;20451;-63
2023/08/18 01:22:05;;;;;;;58.53;29.38;;;17.10;99.90;;;;;;5045526;28;20802;-63
2023/08/18 01:24:33;;;;;;;58.27;29.17;;;17.20;99.90;;;;;;5043456;28;20518;-63
2023/08/18 01:27:00;;;;;;;59.50;30.33;;;17.10;99.90;;;;;;5039111;28;20417;-64
2023/08/18 01:29:27;;;;;;;57.75;29.13;;;17.00;99.90;;;;;;5045090;28;20498;-63
2023/08/18 01:31:58;;;;;;;56.08;28.65;;;17.00;99.90;;;;;;5042640;28;20413;-63
2023/08/18 01:34:26;;;;;;;62.03;29.23;;;17.30;99.90;;;;;;5043868;28;20507;-63
2023/08/18 01:36:56;;;;;;;65.18;30.77;;;17.30;99.90;;;;;;5042464;28;20413;-63
2023/08/18 01:39:25;;;;;;;70.72;29.98;;;16.90;99.90;;;;;;5043720;28;20399;-63
2023/08/18 01:41:54;;;;;;;66.97;31.67;;;17.30;99.90;;;;;;5042347;28;20413;-63
2023/08/18 01:44:20;;;;;;;67.72;30.85;;;17.10;99.90;;;;;;5042952;28;20411;-63
2023/08/18 01:46:47;;;;;;;74.35;31.10;;;17.30;99.90;;;;;;5045325;28;20965;-63
2023/08/18 01:49:14;;;;;;;72.50;31.45;;;17.10;99.90;;;;;;5040243;28;20496;-63
2023/08/18 01:51:41;;;;;;;75.05;32.47;;;16.90;99.90;;;;;;5050279;28;20413;-63
2023/08/18 01:54:07;;;;;;;76.65;31.38;;;17.10;99.90;;;;;;5041996;28;20415;-63
2023/08/18 01:56:34;;;;;;;69.65;31.05;;;17.30;99.90;;;;;;5045035;28;20438;-63
2023/08/18 01:59:04;;;;;;;76.78;30.83;;;17.10;99.90;;;;;;5042061;28;20963;-63
2023/08/18 02:01:31;;;;;;;83.47;31.67;;;16.80;99.90;;;;;;5037539;28;20572;-62
2023/08/18 02:03:57;;;;;;;86.07;32.93;;;16.90;99.90;;;;;;5045669;28;20411;-62
2023/08/18 02:06:24;;;;;;;85.90;32.83;;;16.90;99.90;;;;;;5041524;28;20422;-64
2023/08/18 02:08:50;;;;;;;81.53;31.87;;;17.20;99.90;;;;;;5037071;28;20509;-64
2023/08/18 02:11:17;;;;;;;79.87;31.60;;;17.00;99.90;;;;;;5039019;28;20413;-64
2023/08/18 02:13:44;;;;;;;87.00;32.67;;;17.10;99.90;;;;;;5041544;28;20411;-64
2023/08/18 02:16:12;;;;;;;94.88;33.78;;;17.10;99.90;;;;;;5041753;28;20485;-64
2023/08/18 02:18:39;;;;;;;92.40;33.75;;;17.20;99.90;;;;;;5039622;28;20415;-64
2023/08/18 02:21:06;;;;;;;94.82;34.72;;;17.30;99.90;;;;;;5045207;28;20409;-64
2023/08/18 02:23:33;;;;;;;84.38;33.20;;;17.30;99.90;;;;;;5041399;28;20939;-62
2023/08/18 02:26:00;;;;;;;84.97;30.85;;;17.00;99.90;;;;;;5042767;28;20417;-62
2023/08/18 02:28:27;;;;;;;77.53;31.63;;;17.30;99.90;;;;;;5039986;28;20890;-62
2023/08/18 02:30:59;;;;;;;76.43;31.08;;;17.40;99.90;;;;;;5037751;28;20436;-62
2023/08/18 02:33:28;;;;;;;85.68;33.42;;;17.20;99.90;;;;;;5039696;28;20430;-62
2023/08/18 02:35:54;;;;;;;77.57;31.02;;;17.30;99.90;;;;;;5037876;28;20892;-62
2023/08/18 02:38:21;;;;;;;80.05;32.25;;;17.30;99.90;;;;;;5039583;28;20462;-62
2023/08/18 02:40:48;;;;;;;86.55;32.03;;;17.30;99.90;;;;;;5043120;28;20413;-62
2023/08/18 02:43:14;;;;;;;85.15;31.85;;;17.40;99.90;;;;;;5039512;28;20416;-62
2023/08/18 02:45:41;;;;;;;87.00;31.27;;;17.10;99.90;;;;;;5043251;28;20417;-62
2023/08/18 02:48:07;;;;;;;101.30;33.10;;;17.40;99.90;;;;;;5036599;28;20409;-64
2023/08/18 02:50:35;;;;;;;98.07;32.92;;;17.10;99.90;;;;;;5043094;28;20425;-64
2023/08/18 02:53:03;;;;;;;92.82;33.70;;;17.30;99.90;;;;;;5044005;28;20409;-64
2023/08/18 02:55:29;;;;;;;89.45;32.03;;;17.30;99.90;;;;;;5041535;28;20419;-64
2023/08/18 02:57:56;;;;;;;88.68;33.28;;;17.20;99.90;;;;;;5044167;28;20471;-64
2023/08/18 03:00:23;;;;;;;88.70;32.38;;;17.10;99.90;;;;;;5043908;28;20459;-64
2023/08/18 03:02:50;;;;;;;85.68;31.98;;;17.10;99.90;;;;;;5040330;28;20952;-64
2023/08/18 03:05:17;;;;;;;93.18;33.08;;;17.40;99.90;;;;;;5040394;28;20501;-64
2023/08/18 03:07:45;;;;;;;86.50;31.95;;;17.30;99.90;;;;;;5040342;28;20506;-65
2023/08/18 03:10:12;;;;;;;95.53;32.58;;;17.00;99.90;;;;;;5040008;28;20427;-64
2023/08/18 03:12:39;;;;;;;88.82;32.17;;;17.10;99.90;;;;;;5040740;28;20477;-65
2023/08/18 03:15:06;;;;;;;93.85;32.03;;;17.10;99.90;;;;;;5046684;28;20413;-65
2023/08/18 03:17:33;;;;;;;96.57;33.30;;;17.30;99.90;;;;;;5040555;28;20820;-64
2023/08/18 03:20:00;;;;;;;93.50;34.10;;;17.00;99.90;;;;;;5038713;28;20460;-64
2023/08/18 03:22:28;;;;;;;100.10;34.28;;;17.40;99.90;;;;;;5042286;28;21341;-65
2023/08/18 03:24:56;;;;;;;96.05;33.75;;;17.10;99.90;;;;;;5043631;28;20417;-64
2023/08/18 03:27:23;;;;;;;93.13;32.40;;;17.40;99.90;;;;;;5041525;28;20411;-64
2023/08/18 03:29:49;;;;;;;88.03;30.42;;;17.10;99.90;;;;;;5041955;28;20433;-64
2023/08/18 03:32:16;;;;;;;92.25;31.83;;;17.10;99.90;;;;;;5038355;28;20843;-63
2023/08/18 03:34:42;;;;;;;93.97;32.38;;;17.20;99.90;;;;;;5042260;28;20412;-63
2023/08/18 03:37:09;;;;;;;96.85;33.00;;;17.10;99.90;;;;;;5038446;28;20421;-63
2023/08/18 03:39:36;;;;;;;94.88;30.70;;;17.20;99.90;;;;;;5042375;28;20437;-63
2023/08/18 03:42:04;;;;;;;98.13;32.58;;;17.20;99.90;;;;;;5038017;28;20413;-63
2023/08/18 03:44:31;;;;;;;83.67;29.63;;;17.20;99.90;;;;;;5041515;28;20414;-63
2023/08/18 03:46:57;;;;;;;89.23;30.87;;;17.20;99.90;;;;;;5039178;28;20444;-61
2023/08/18 03:49:24;;;;;;;98.00;32.00;;;17.20;99.90;;;;;;5037840;28;20905;-61
2023/08/18 03:51:50;;;;;;;98.10;31.65;;;17.00;99.90;;;;;;5043058;28;20405;-61
2023/08/18 03:54:17;;;;;;;114.25;32.88;;;17.00;99.90;;;;;;5036214;28;20415;-61
2023/08/18 03:56:44;;;;;;;112.00;32.55;;;17.20;99.90;;;;;;5040974;28;20871;-62
2023/08/18 03:59:12;;;;;;;115.68;33.05;;;17.20;99.90;;;;;;5038852;28;20463;-61
2023/08/18 04:01:38;;;;;;;115.35;34.13;;;17.10;99.90;;;;;;5040345;28;20812;-61
2023/08/18 04:04:05;;;;;;;117.10;33.08;;;17.10;99.90;;;;;;5038982;28;20411;-61
2023/08/18 04:06:32;;;;;;;123.07;32.55;;;17.00;99.90;;;;;;5039729;28;20411;-61
2023/08/18 04:09:07;;;;;;;108.00;30.70;;;17.10;99.90;;;;;;5039867;28;20411;-61
2023/08/18 04:11:34;;;;;;;109.43;32.35;;;17.00;99.90;;;;;;5033859;28;20518;-63
2023/08/18 04:14:01;;;;;;;115.25;32.75;;;16.90;99.90;;;;;;5032061;28;20792;-63
2023/08/18 04:16:29;;;;;;;102.60;30.73;;;17.10;99.90;;;;;;5033505;28;20933;-63
2023/08/18 04:18:55;;;;;;;100.55;31.23;;;17.10;99.90;;;;;;5032578;28;20434;-61
2023/08/18 04:21:22;;;;;;;98.82;30.67;;;17.10;99.90;;;;;;5038920;28;20880;-61
2023/08/18 04:23:48;;;;;;;105.35;31.50;;;17.10;99.90;;;;;;5037886;28;20468;-63
2023/08/18 04:26:15;;;;;;;94.68;30.98;;;16.90;99.90;;;;;;5035956;28;20413;-63
2023/08/18 04:28:42;;;;;;;103.18;30.20;;;17.00;99.90;;;;;;5036968;28;20466;-61
2023/08/18 04:31:08;;;;;;;98.60;28.83;;;16.80;99.90;;;;;;5037504;28;20494;-61
2023/08/18 04:33:36;;;;;;;96.25;29.38;;;16.70;99.90;;;;;;5037093;28;20419;-61
2023/08/18 04:36:04;;;;;;;80.77;29.07;;;16.90;99.90;;;;;;5037311;28;20471;-61
2023/08/18 04:38:31;;;;;;;92.07;29.63;;;16.90;99.90;;;;;;5037073;28;20421;-61
2023/08/18 04:40:58;;;;;;;95.18;30.38;;;17.20;99.90;;;;;;5034039;28;20405;-61
2023/08/18 04:43:25;;;;;;;120.03;31.67;;;17.10;99.90;;;;;;5033630;28;20417;-61
2023/08/18 04:45:52;;;;;;;99.90;30.23;;;16.80;99.90;;;;;;5035671;28;20422;-61
2023/08/18 04:48:19;;;;;;;95.68;30.58;;;16.80;99.90;;;;;;5036687;28;20427;-61
2023/08/18 04:50:48;;;;;;;88.40;29.37;;;16.80;99.90;;;;;;5042008;28;20451;-61
2023/08/18 04:53:15;;;;;;;103.80;29.55;;;17.00;99.90;;;;;;5035599;28;20423;-61
2023/08/18 04:55:42;;;;;;;99.78;30.55;;;16.70;99.90;;;;;;5030646;28;20423;-61
2023/08/18 04:58:12;;;;;;;88.70;29.25;;;17.00;99.90;;;;;;5036236;28;20434;-61
2023/08/18 05:00:39;;;;;;;102.93;29.60;;;17.00;99.90;;;;;;5035133;28;20411;-61
2023/08/18 05:03:06;;;;;;;95.10;29.23;;;17.20;99.90;;;;;;5040963;28;20705;-63
2023/08/18 05:05:34;;;;;;;94.25;29.73;;;16.80;99.90;;;;;;5034925;28;20468;-63
2023/08/18 05:08:02;;;;;;;103.60;28.95;;;17.00;99.90;;;;;;5040717;28;20558;-63
2023/08/18 05:10:30;;;;;;;92.53;29.30;;;16.80;99.90;;;;;;5037202;28;20508;-63
2023/08/18 05:12:56;;;;;;;119.93;30.35;;;17.00;99.90;;;;;;5035428;28;20829;-63
2023/08/18 05:15:23;;;;;;;134.93;31.48;;;17.10;99.90;;;;;;5036221;28;20409;-62
2023/08/18 05:17:50;;;;;;;106.17;32.23;;;17.00;99.90;;;;;;5035860;28;20473;-61
2023/08/18 05:20:17;;;;;;;108.78;32.53;;;16.70;99.90;;;;;;5039983;28;20411;-61
2023/08/18 05:22:43;;;;;;;133.27;33.20;;;17.00;99.90;;;;;;5041881;28;20411;-62
2023/08/18 05:25:13;;;;;;;125.75;33.90;;;16.80;99.90;;;;;;5038558;28;20469;-61
2023/08/18 05:27:40;;;;;;;136.18;33.25;;;17.10;99.90;;;;;;5035317;28;20410;-61
2023/08/18 05:30:08;;;;;;;135.85;30.98;;;17.40;99.90;;;;;;5038925;28;20473;-63
2023/08/18 05:32:35;;;;;;;99.53;30.57;;;18.20;99.90;;;;;;5039508;28;20414;-63
2023/08/18 05:35:02;;;;;;;132.90;29.27;;;17.10;99.90;;;;;;5037544;28;20413;-63
2023/08/18 05:37:28;;;;;;;121.13;28.27;;;16.90;99.90;;;;;;5037892;28;20415;-63
2023/08/18 05:39:56;;;;;;;98.40;28.48;;;16.70;99.90;;;;;;5039989;28;20413;-63
2023/08/18 05:42:24;;;;;;;87.17;28.00;;;17.00;99.90;;;;;;5037150;28;20414;-63
2023/08/18 05:44:50;;;;;;;84.75;27.80;;;16.80;99.90;;;;;;5039655;28;20467;-63
2023/08/18 05:47:17;;;;;;;103.60;29.05;;;17.10;99.90;;;;;;5037575;28;20468;-63
2023/08/18 05:49:43;;;;;;;91.15;29.92;;;17.10;99.90;;;;;;5038804;28;20888;-63
2023/08/18 05:52:10;;;;;;;127.05;44.63;;;17.00;99.90;;;;;;5045983;28;20425;-63
2023/08/18 05:54:37;;;;;;;105.38;32.20;;;17.00;99.90;;;;;;5040332;28;20886;-63
2023/08/18 05:57:03;;;;;;;122.93;32.45;;;17.10;99.90;;;;;;5040655;28;20424;-61
2023/08/18 05:59:33;;;;;;;102.88;31.30;;;17.10;99.90;;;;;;5037289;28;20477;-63
2023/08/18 06:01:59;;;;;;;76.27;28.07;;;17.50;99.90;;;;;;5048066;28;20412;-64
2023/08/18 06:04:26;;;;;;;72.43;27.07;;;18.30;99.90;;;;;;5041668;28;20497;-64
2023/08/18 06:06:53;;;;;;;59.20;24.20;;;17.30;99.90;;;;;;5049752;28;20439;-64
2023/08/18 06:09:20;;;;;;;52.90;22.70;;;17.10;99.90;;;;;;5038643;28;20451;-63
2023/08/18 06:11:46;;;;;;;66.07;23.65;;;17.40;99.90;;;;;;5040452;28;20997;-66
2023/08/18 06:14:13;;;;;;;46.97;22.10;;;17.90;99.90;;;;;;5030892;28;20427;-64
2023/08/18 06:16:41;;;;;;;45.78;23.38;;;17.30;99.90;;;;;;5038610;28;20438;-64
2023/08/18 06:19:08;;;;;;;46.78;22.60;;;17.70;99.90;;;;;;5037343;28;20415;-64
2023/08/18 06:21:35;;;;;;;42.20;22.08;;;17.60;99.90;;;;;;5047577;28;20471;-65
2023/08/18 06:24:02;;;;;;;35.58;19.38;;;17.70;99.90;;;;;;5040722;28;20413;-67
2023/08/18 06:26:29;;;;;;;29.88;18.08;;;17.70;99.90;;;;;;5040344;28;20415;-65
2023/08/18 06:28:55;;;;;;;28.95;17.48;;;17.70;99.90;;;;;;5040669;28;20500;-65
2023/08/18 06:31:22;;;;;;;26.90;16.13;;;18.90;99.90;;;;;;5040352;28;20431;-64
2023/08/18 06:33:50;;;;;;;38.28;17.17;;;17.70;99.90;;;;;;5040970;28;20415;-64
2023/08/18 06:36:17;;;;;;;25.92;16.42;;;17.70;99.90;;;;;;5040704;28;20419;-64
2023/08/18 06:38:44;;;;;;;28.13;17.23;;;17.60;99.90;;;;;;5040538;28;20893;-64
2023/08/18 06:41:10;;;;;;;25.75;15.70;;;17.70;99.90;;;;;;5041496;28;20409;-64
2023/08/18 06:43:37;;;;;;;24.20;15.10;;;18.00;99.90;;;;;;5040008;28;20411;-64
2023/08/18 06:46:05;;;;;;;25.27;15.95;;;18.10;99.90;;;;;;5042559;28;20440;-64
2023/08/18 06:48:32;;;;;;;26.20;15.60;;;17.70;99.90;;;;;;5038193;28;20514;-63
2023/08/18 06:51:00;;;;;;;25.83;15.15;;;17.50;99.90;;;;;;5038317;28;20423;-64
2023/08/18 06:53:27;;;;;;;25.35;15.65;;;17.60;99.90;;;;;;5037771;28;20425;-62
2023/08/18 06:55:56;;;;;;;22.17;14.73;;;17.60;99.90;;;;;;5037641;28;20793;-65
2023/08/18 06:58:23;;;;;;;27.67;16.95;;;17.60;99.90;;;;;;5035064;28;20770;-64
2023/08/18 07:00:49;;;;;;;28.98;16.65;;;17.50;99.90;;;;;;5034908;28;20419;-63
2023/08/18 07:03:16;;;;;;;31.00;17.58;;;17.70;99.90;;;;;;5037886;28;20411;-67
2023/08/18 07:05:43;;;;;;;31.20;17.77;;;17.40;99.90;;;;;;5036019;28;20415;-63
2023/08/18 07:08:11;;;;;;;38.78;18.63;;;17.40;99.90;;;;;;5043138;28;20409;-62
2023/08/18 07:10:38;;;;;;;29.00;17.02;;;;;;;;;;5035029;28;20905;-68
2023/08/18 07:13:05;;;;;;;28.63;16.08;;;17.50;99.90;;;;;;5040116;28;20441;-64
2023/08/18 07:15:32;;;;;;;26.30;16.25;;;17.70;99.90;;;;;;5036181;28;20415;-62
2023/08/18 07:17:59;;;;;;;21.50;13.98;;;17.60;99.90;;;;;;5037889;28;20493;-63
2023/08/18 07:20:25;;;;;;;20.83;13.88;;;18.00;99.90;;;;;;5043462;28;20413;-63
2023/08/18 07:22:53;;;;;;;23.50;13.95;;;17.70;99.90;;;;;;5051760;28;20490;-62
2023/08/18 07:25:21;;;;;;;18.37;12.80;;;18.00;99.90;;;;;;5049370;28;20968;-62
2023/08/18 07:27:48;;;;;;;17.23;12.93;;;17.90;99.90;;;;;;5033089;28;20423;-63
2023/08/18 07:30:15;;;;;;;18.65;13.77;;;17.70;99.90;;;;;;5036194;28;20412;-63
2023/08/18 07:32:41;;;;;;;20.40;13.48;;;17.90;99.90;;;;;;5025952;28;21012;-64
2023/08/18 07:35:09;;;;;;;19.20;13.48;;;17.80;99.90;;;;;;5040302;28;20410;-64
2023/08/18 07:37:36;;;;;;;19.33;13.25;;;18.10;99.90;;;;;;5037690;28;20411;-65
2023/08/18 07:40:05;;;;;;;19.00;13.27;;;17.90;99.90;;;;;;5048054;28;20903;-64
2023/08/18 07:42:33;;;;;;;18.73;13.50;;;17.80;99.90;;;;;;5047139;28;20545;-64
2023/08/18 07:44:59;;;;;;;20.70;13.25;;;17.90;99.90;;;;;;5042367;28;20418;-64
2023/08/18 07:47:26;;;;;;;22.48;14.35;;;17.70;99.90;;;;;;5038887;28;20481;-64
2023/08/18 07:49:53;;;;;;;17.67;12.63;;;17.90;99.90;;;;;;5040948;28;20409;-64
2023/08/18 07:52:20;;;;;;;17.40;12.63;;;18.00;99.90;;;;;;5048115;28;20965;-64
2023/08/18 07:54:46;;;;;;;16.42;12.60;;;18.70;99.90;;;;;;5048022;28;20409;-64
2023/08/18 07:57:13;;;;;;;21.02;15.25;;;18.20;99.90;;;;;;5042676;28;20903;-63
2023/08/18 07:59:41;;;;;;;22.90;16.65;;;18.40;99.90;;;;;;5038248;28;20483;-63
2023/08/18 08:02:09;;;;;;;21.50;13.95;;;;;;;;;;5045226;28;20755;-63
2023/08/18 08:04:35;;;;;;;16.83;12.75;;;18.40;99.90;;;;;;5038626;28;20535;-65
2023/08/18 08:07:04;;;;;;;14.90;11.98;;;18.30;99.90;;;;;;5036268;28;20434;-65
2023/08/18 08:09:32;;;;;;;15.87;11.87;;;;;;;;;;5038755;28;20966;-63
2023/08/18 08:11:58;;;;;;;14.82;12.05;;;18.60;99.90;;;;;;5040928;28;20487;-64
2023/08/18 08:14:25;;;;;;;15.35;11.60;;;18.60;99.90;;;;;;5029138;28;20453;-64
2023/08/18 08:16:53;;;;;;;13.60;10.93;;;;;;;;;;5032936;28;20419;-63
2023/08/18 08:19:20;;;;;;;13.20;10.97;;;18.70;99.90;;;;;;5034892;28;20414;-63
2023/08/18 08:21:47;;;;;;;16.42;12.70;;;18.90;99.90;;;;;;5046252;28;20413;-63
2023/08/18 08:24:13;;;;;;;18.08;14.77;;;18.70;99.90;;;;;;5038584;28;20502;-65
2023/08/18 08:26:40;;;;;;;19.40;16.02;;;18.80;99.90;;;;;;5035787;28;20519;-65
2023/08/18 08:29:07;;;;;;;19.45;16.52;;;;;;;;;;5039449;28;20463;-65
2023/08/18 08:31:34;;;;;;;16.52;14.40;;;19.10;99.90;;;;;;5038203;28;20504;-65
2023/08/18 08:34:02;;;;;;;17.10;14.07;;;19.60;99.90;;;;;;5038593;28;20415;-64
2023/08/18 08:36:32;;;;;;;14.60;12.85;;;20.00;99.90;;;;;;5038364;28;20415;-64
2023/08/18 08:38:59;;;;;;;13.88;11.25;;;19.30;99.90;;;;;;5038578;28;20485;-64
2023/08/18 08:41:26;;;;;;;13.18;11.75;;;20.00;99.90;;;;;;5037779;28;20494;-63
2023/08/18 08:43:53;;;;;;;14.00;11.57;;;19.40;99.90;;;;;;5041795;28;20409;-63
2023/08/18 08:46:21;;;;;;;13.10;11.68;;;19.50;99.90;;;;;;5042789;28;20789;-63
2023/08/18 08:48:48;;;;;;;14.25;12.10;;;19.80;99.90;;;;;;5037685;28;20790;-65
2023/08/18 08:51:19;;;;;;;15.05;13.45;;;20.30;99.90;;;;;;5041455;28;20470;-66
2023/08/18 08:53:48;;;;;;;18.30;14.40;;;20.70;99.90;;;;;;5043685;28;20955;-61
2023/08/18 08:56:17;;;;;;;15.00;13.40;;;20.60;99.90;;;;;;5039118;28;20897;-61
2023/08/18 08:58:45;;;;;;;18.38;16.15;;;19.80;99.90;;;;;;5038230;28;20506;-63
2023/08/18 09:01:11;;;;;;;17.92;14.80;;;19.80;99.90;;;;;;5041318;28;21006;-62
2023/08/18 09:03:39;;;;;;;17.15;15.32;;;20.10;99.90;;;;;;5045728;28;20467;-62
2023/08/18 09:06:07;;;;;;;15.05;13.55;;;20.00;99.90;;;;;;5043079;28;20418;-64
2023/08/18 09:08:36;;;;;;;17.05;15.15;;;20.10;99.90;;;;;;5037105;28;20420;-65
2023/08/18 09:11:03;;;;;;;18.15;16.35;;;;;;;;;;5035339;28;20413;-64
2023/08/18 09:13:30;;;;;;;20.05;16.80;;;;;;;;;;5037618;28;20947;-66
2023/08/18 09:15:58;;;;;;;19.42;17.33;;;20.50;99.90;;;;;;5040557;28;20471;-66
2023/08/18 09:18:24;;;;;;;20.30;17.90;;;20.40;99.90;;;;;;5036666;28;20776;-66
2023/08/18 09:20:56;;;;;;;18.95;16.45;;;20.60;99.90;;;;;;5039273;28;20409;-66
2023/08/18 09:23:26;;;;;;;15.18;13.55;;;20.40;99.90;;;;;;5038161;28;20415;-62
2023/08/18 09:25:56;;;;;;;15.35;13.73;;;20.80;99.90;;;;;;5040042;28;20496;-63
2023/08/18 09:28:22;;;;;;;16.02;14.38;;;21.00;99.90;;;;;;5036370;28;20421;-63
2023/08/18 09:30:49;;;;;;;14.30;12.90;;;20.80;99.90;;;;;;5046372;28;20434;-63
2023/08/18 09:33:16;;;;;;;13.65;12.23;;;21.40;99.90;;;;;;5037700;28;20792;-64
2023/08/18 09:35:43;;;;;;;13.98;12.27;;;20.80;99.90;;;;;;5042222;28;20478;-63
2023/08/18 09:38:13;;;;;;;14.00;12.13;;;21.00;99.90;;;;;;5045446;28;20417;-64
2023/08/18 09:40:39;;;;;;;13.55;12.15;;;21.20;99.90;;;;;;5032703;28;20411;-63
2023/08/18 09:43:07;;;;;;;15.02;12.60;;;21.00;99.90;;;;;;5041012;28;20462;-63
2023/08/18 09:45:40;;;;;;;12.95;11.55;;;;;;;;;;5040032;28;20522;-63
2023/08/18 09:48:13;;;;;;;13.07;11.48;;;21.40;99.90;;;;;;5043436;28;20495;-62
2023/08/18 09:50:41;;;;;;;14.43;10.50;;;21.50;99.90;;;;;;5042986;28;20421;-62
2023/08/18 09:53:09;;;;;;;12.23;10.65;;;21.40;99.90;;;;;;5046802;28;20486;-63
2023/08/18 09:55:42;;;;;;;12.63;10.50;;;21.10;99.90;;;;;;5040504;28;20477;-61
2023/08/18 09:58:19;;;;;;;13.95;10.85;;;21.30;99.90;;;;;;5042721;28;20405;-61
2023/08/18 10:00:54;;;;;;;12.70;10.90;;;21.70;99.90;;;;;;5040111;28;20418;-59
2023/08/18 10:03:22;;;;;;;12.55;11.20;;;21.30;99.90;;;;;;5042093;28;20409;-60
2023/08/18 10:05:49;;;;;;;13.55;12.15;;;21.30;99.90;;;;;;5044632;28;20955;-60
2023/08/18 10:08:16;;;;;;;13.98;12.43;;;21.50;99.90;;;;;;5041618;28;20413;-61
2023/08/18 10:10:43;;;;;;;15.95;13.77;;;21.40;99.90;;;;;;5039722;28;20466;-59
2023/08/18 10:13:13;;;;;;;15.10;13.55;;;21.80;99.90;;;;;;5044221;28;20433;-61
2023/08/18 10:15:40;;;;;;;16.35;14.45;;;21.60;99.90;;;;;;5046408;28;20551;-60
2023/08/18 10:18:09;;;;;;;15.43;13.75;;;21.30;99.90;;;;;;5037838;28;20444;-60
2023/08/18 10:20:36;;;;;;;15.10;12.97;;;21.30;99.90;;;;;;5040645;28;20443;-61
2023/08/18 10:23:03;;;;;;;14.20;12.70;;;21.70;99.90;;;;;;5043045;28;20410;-61
2023/08/18 10:25:31;;;;;;;13.55;11.45;;;21.90;99.90;;;;;;5037790;28;21067;-58
2023/08/18 10:27:59;;;;;;;13.80;12.38;;;21.60;99.90;;;;;;5043197;28;20448;-58
2023/08/18 10:30:28;;;;;;;16.45;13.27;;;22.10;99.90;;;;;;5042565;28;20409;-58
2023/08/18 10:33:00;;;;;;;13.23;11.93;;;21.60;99.90;;;;;;5041817;28;20465;-59
2023/08/18 10:35:28;;;;;;;15.00;12.68;;;21.80;99.90;;;;;;5036926;28;20422;-60
2023/08/18 10:37:56;;;;;;;12.83;11.43;;;22.20;99.90;;;;;;5037624;28;20847;-63
2023/08/18 10:40:25;;;;;;;13.90;11.85;;;22.20;99.90;;;;;;5032477;28;20415;-63
2023/08/18 10:42:53;;;;;;;11.80;10.55;;;22.30;99.90;;;;;;5037104;28;20415;-60
2023/08/18 10:45:24;;;;;;;12.73;11.47;;;22.20;99.90;;;;;;5037460;28;20421;-60
2023/08/18 10:47:52;;;;;;;12.63;11.10;;;22.40;99.90;;;;;;5035488;28;20411;-60
2023/08/18 10:50:20;;;;;;;13.10;11.73;;;22.60;99.90;;;;;;5041597;28;20457;-59
2023/08/18 10:52:46;;;;;;;13.95;12.23;;;22.40;99.90;;;;;;5041002;28;20417;-61
2023/08/18 10:55:13;;;;;;;13.27;11.23;;;22.30;99.90;;;;;;5039567;28;20416;-61
2023/08/18 10:57:40;;;;;;;12.73;11.10;;;22.20;99.90;;;;;;5040902;28;20465;-61
2023/08/18 11:00:11;;;;;;;12.82;10.40;;;22.40;99.90;;;;;;5042175;28;20512;-60
2023/08/18 11:02:38;;;;;;;11.18;10.02;;;22.70;99.90;;;;;;5038584;28;20529;-61
2023/08/18 11:05:07;;;;;;;12.38;11.07;;;23.20;99.90;;;;;;5042052;28;20443;-62
2023/08/18 11:07:34;;;;;;;12.80;10.03;;;23.20;99.90;;;;;;5038025;28;20419;-60
2023/08/18 11:10:01;;;;;;;11.10;9.27;;;23.20;99.90;;;;;;5042245;28;20417;-60
2023/08/18 11:12:28;;;;;;;11.97;9.97;;;;;;;;;;5036129;28;20767;-60
2023/08/18 11:14:54;;;;;;;12.80;10.23;;;23.20;99.90;;;;;;5041319;28;20421;-60
2023/08/18 11:17:21;;;;;;;11.90;9.80;;;23.40;99.90;;;;;;5039377;28;20434;-59
2023/08/18 11:19:48;;;;;;;12.52;10.02;;;23.50;99.90;;;;;;5034791;28;20421;-60
2023/08/18 11:22:17;;;;;;;11.13;9.32;;;24.20;99.90;;;;;;5041894;28;20896;-60
2023/08/18 11:24:44;;;;;;;12.95;9.05;;;23.80;99.90;;;;;;5036950;28;20422;-59
2023/08/18 11:27:11;;;;;;;11.35;9.32;;;23.50;99.90;;;;;;5039159;28;20417;-60
2023/08/18 11:29:39;;;;;;;9.50;8.55;;;23.70;99.90;;;;;;5037231;28;20421;-61
2023/08/18 11:32:09;;;;;;;9.18;8.00;;;23.70;99.90;;;;;;5039076;28;20423;-60
2023/08/18 11:34:36;;;;;;;9.90;8.90;;;23.60;99.90;;;;;;5039073;28;20983;-60
2023/08/18 11:37:04;;;;;;;9.88;7.40;;;23.90;99.90;;;;;;5039179;28;20445;-60
2023/08/18 11:39:32;;;;;;;9.73;8.02;;;24.10;99.90;;;;;;5038481;28;20411;-61
2023/08/18 11:41:59;;;;;;;11.43;8.85;;;24.20;99.90;;;;;;5039555;28;20490;-60
2023/08/18 11:44:26;;;;;;;9.65;8.40;;;24.70;99.90;;;;;;5037368;28;20526;-61
2023/08/18 11:46:54;;;;;;;14.00;9.40;;;;;;;;;;5038863;28;20778;-61
2023/08/18 11:49:21;;;;;;;11.20;10.00;;;24.40;99.90;;;;;;5038541;28;20419;-61
2023/08/18 11:51:57;;;;;;;11.10;8.95;;;24.50;99.90;;;;;;5040368;28;21106;-60
2023/08/18 11:54:25;;;;;;;10.52;9.15;;;24.20;99.90;;;;;;5037879;28;20419;-61
2023/08/18 11:56:53;;;;;;;11.93;10.50;;;25.00;99.90;;;;;;5038819;28;20754;-60
2023/08/18 11:59:20;;;;;;;10.25;9.25;;;24.30;99.90;;;;;;5039419;28;20469;-62
2023/08/18 12:01:47;;;;;;;11.07;9.98;;;;;;;;;;5042104;28;20422;-60
2023/08/18 12:04:15;;;;;;;11.30;10.00;;;;;;;;;;5042483;28;20838;-66
2023/08/18 12:06:41;;;;;;;11.13;9.77;;;24.60;99.90;;;;;;5038073;28;20920;-66
2023/08/18 12:09:12;;;;;;;12.55;11.40;;;25.10;99.90;;;;;;5040523;28;20440;-64
2023/08/18 12:11:39;;;;;;;12.20;11.07;;;24.80;99.90;;;;;;5036711;28;20442;-65
2023/08/18 12:14:07;;;;;;;13.80;12.48;;;25.00;99.90;;;;;;5038986;28;20488;-66
2023/08/18 12:16:34;;;;;;;13.65;12.25;;;25.00;99.90;;;;;;5043833;28;20905;-66
2023/08/18 12:19:01;;;;;;;12.38;11.07;;;25.20;99.90;;;;;;5037683;28;20411;-65
2023/08/18 12:21:27;;;;;;;13.43;10.85;;;25.20;99.90;;;;;;5046803;28;20417;-64
2023/08/18 12:23:54;;;;;;;11.48;10.38;;;25.50;99.90;;;;;;5042030;28;20471;-64
2023/08/18 12:26:20;;;;;;;12.30;11.10;;;25.40;99.90;;;;;;5033352;28;20480;-63
2023/08/18 12:28:47;;;;;;;12.77;11.57;;;25.30;99.90;;;;;;5039488;28;20466;-61
2023/08/18 12:31:17;;;;;;;11.82;10.70;;;;;;;;;;5037099;28;20455;-68